createdAt,value
2019-03-21T00:00:33.003Z,27.97
2019-03-21T00:03:02.860Z,29.67
2019-03-21T00:05:34.962Z,30.17
2019-03-21T00:08:05.903Z,35.50
2019-03-21T00:11:12.051Z,26.43
2019-03-21T00:13:42.142Z,25.63
2019-03-21T00:16:13.591Z,24.47
2019-03-21T00:18:43.555Z,22.10
2019-03-21T00:21:13.411Z,25.40
2019-03-21T00:23:43.271Z,25.77
2019-03-21T00:26:13.157Z,41.83
2019-03-21T00:28:43.022Z,29.20
2019-03-21T00:31:12.799Z,42.00
2019-03-21T00:33:42.607Z,33.87
2019-03-21T00:36:12.459Z,38.80
2019-03-21T00:38:42.310Z,33.13
2019-03-21T00:41:12.207Z,32.27
2019-03-21T00:43:43.558Z,23.73
2019-03-21T00:46:13.278Z,29.13
2019-03-21T00:48:43.045Z,25.30
2019-03-21T00:51:12.747Z,29.13
2019-03-21T00:53:42.642Z,28.03
2019-03-21T00:56:12.501Z,33.97
2019-03-21T00:58:42.351Z,32.03
2019-03-21T01:01:12.637Z,30.23
2019-03-21T01:03:42.422Z,28.10
2019-03-21T01:06:12.238Z,26.17
2019-03-21T01:08:42.004Z,29.57
2019-03-21T01:11:11.790Z,31.00
2019-03-21T01:13:42.188Z,30.10
2019-03-21T01:16:11.951Z,27.03
2019-03-21T01:18:41.774Z,30.37
2019-03-21T01:21:11.534Z,27.70
2019-03-21T01:23:41.319Z,30.27
2019-03-21T01:26:11.126Z,29.63
2019-03-21T01:28:40.978Z,32.60
2019-03-21T01:31:10.874Z,29.53
2019-03-21T01:33:40.664Z,31.87
2019-03-21T01:36:10.662Z,30.57
2019-03-21T01:38:40.442Z,29.97
2019-03-21T01:41:10.315Z,33.03
2019-03-21T01:43:40.137Z,30.77
2019-03-21T01:46:11.898Z,34.13
2019-03-21T01:48:41.742Z,28.50
2019-03-21T01:51:11.611Z,32.87
2019-03-21T01:53:41.381Z,30.93
2019-03-21T01:56:11.148Z,34.17
2019-03-21T01:58:41.058Z,31.07
2019-03-21T02:01:10.930Z,31.90
2019-03-21T02:03:40.716Z,36.53
2019-03-21T02:06:10.615Z,31.00
2019-03-21T02:08:40.459Z,32.40
2019-03-21T02:11:10.254Z,28.30
2019-03-21T02:13:40.042Z,32.20
2019-03-21T02:16:09.894Z,35.27
2019-03-21T02:18:39.748Z,28.30
2019-03-21T02:21:09.588Z,33.03
2019-03-21T02:23:39.480Z,31.37
2019-03-21T02:26:09.317Z,29.33
2019-03-21T02:28:39.326Z,33.07
2019-03-21T02:31:09.295Z,32.70
2019-03-21T02:33:39.525Z,31.73
2019-03-21T02:36:10.320Z,29.23
2019-03-21T02:38:40.162Z,31.43
2019-03-21T02:41:10.506Z,32.43
2019-03-21T02:43:40.553Z,27.97
2019-03-21T02:46:10.359Z,31.33
2019-03-21T02:48:40.163Z,33.07
2019-03-21T02:51:09.943Z,32.03
2019-03-21T02:53:39.786Z,32.70
2019-03-21T02:56:11.279Z,30.10
2019-03-21T02:58:41.046Z,34.13
2019-03-21T03:01:10.895Z,34.90
2019-03-21T03:03:40.766Z,30.57
2019-03-21T03:06:10.664Z,35.50
2019-03-21T03:08:40.525Z,30.87
2019-03-21T03:11:10.994Z,35.33
2019-03-21T03:13:41.403Z,28.57
2019-03-21T03:16:11.321Z,27.73
2019-03-21T03:18:41.418Z,36.90
2019-03-21T03:21:11.280Z,30.93
2019-03-21T03:23:41.055Z,36.93
2019-03-21T03:26:10.834Z,33.73
2019-03-21T03:28:40.946Z,30.33
2019-03-21T03:31:10.815Z,31.43
2019-03-21T03:33:40.594Z,29.53
2019-03-21T03:36:10.430Z,32.43
2019-03-21T03:38:40.187Z,33.57
2019-03-21T03:41:10.456Z,33.83
2019-03-21T03:43:40.249Z,28.67
2019-03-21T03:46:10.104Z,27.80
2019-03-21T03:48:40.037Z,31.70
2019-03-21T03:51:09.882Z,27.63
2019-03-21T03:53:42.458Z,28.90
2019-03-21T03:56:11.571Z,33.57
2019-03-21T03:58:42.895Z,32.13
2019-03-21T04:01:12.684Z,34.50
2019-03-21T04:03:42.498Z,29.90
2019-03-21T04:06:12.363Z,29.13
2019-03-21T04:08:42.283Z,30.80
2019-03-21T04:11:12.604Z,30.13
2019-03-21T04:13:42.709Z,29.13
2019-03-21T04:16:12.520Z,31.53
2019-03-21T04:18:43.155Z,29.10
2019-03-21T04:21:13.048Z,30.63
2019-03-21T04:23:42.837Z,27.17
2019-03-21T04:26:25.225Z,31.93
2019-03-21T04:28:55.022Z,31.03
2019-03-21T04:31:24.914Z,28.63
2019-03-21T04:33:56.395Z,28.50
2019-03-21T04:36:26.288Z,27.20
2019-03-21T04:38:56.136Z,32.80
2019-03-21T04:41:26.061Z,33.90
2019-03-21T04:43:55.969Z,26.83
2019-03-21T04:46:25.747Z,29.60
2019-03-21T04:48:55.542Z,28.10
2019-03-21T04:51:25.305Z,28.50
2019-03-21T04:53:55.046Z,34.60
2019-03-21T04:56:25.077Z,29.50
2019-03-21T04:58:54.941Z,28.33
2019-03-21T05:01:24.860Z,27.63
2019-03-21T05:03:54.715Z,35.57
2019-03-21T05:06:24.636Z,28.30
2019-03-21T05:08:54.658Z,27.57
2019-03-21T05:11:24.447Z,25.60
2019-03-21T05:13:54.216Z,27.33
2019-03-21T05:16:24.035Z,30.10
2019-03-21T05:18:54.765Z,30.23
2019-03-21T05:21:24.755Z,35.30
2019-03-21T05:23:54.549Z,31.03
2019-03-21T05:26:25.097Z,32.87
2019-03-21T05:28:54.932Z,29.63
2019-03-21T05:31:28.637Z,28.80
2019-03-21T05:33:58.517Z,30.97
2019-03-21T05:36:28.392Z,29.17
2019-03-21T05:38:58.169Z,29.00
2019-03-21T05:41:28.039Z,31.37
2019-03-21T05:44:01.740Z,32.13
2019-03-21T05:46:32.086Z,29.50
2019-03-21T05:49:01.966Z,30.70
2019-03-21T05:51:31.871Z,29.03
2019-03-21T05:54:01.641Z,30.10
2019-03-21T05:56:31.428Z,38.93
2019-03-21T05:59:01.195Z,40.03
2019-03-21T06:01:31.064Z,37.00
2019-03-21T06:04:00.906Z,32.93
2019-03-21T06:06:45.109Z,45.07
2019-03-21T06:09:17.297Z,35.03
2019-03-21T06:11:50.496Z,37.87
2019-03-21T06:14:20.346Z,36.57
2019-03-21T06:16:50.128Z,30.00
2019-03-21T06:19:37.755Z,37.23
2019-03-21T06:22:41.198Z,33.60
2019-03-21T06:26:03.422Z,33.90
2019-03-21T06:28:33.297Z,37.07
2019-03-21T06:31:03.184Z,32.50
2019-03-21T06:33:33.031Z,31.97
2019-03-21T06:36:02.809Z,36.40
2019-03-21T06:38:32.728Z,40.37
2019-03-21T06:41:02.527Z,32.90
2019-03-21T06:43:32.302Z,38.87
2019-03-21T06:46:02.220Z,44.20
2019-03-21T06:48:32.069Z,48.73
2019-03-21T06:51:01.938Z,40.30
2019-03-21T06:53:31.757Z,45.20
2019-03-21T06:56:01.604Z,41.67
2019-03-21T06:58:31.490Z,33.80
2019-03-21T07:01:01.369Z,38.27
2019-03-21T07:03:31.137Z,30.37
2019-03-21T07:06:00.919Z,44.13
2019-03-21T07:08:30.770Z,40.17
2019-03-21T07:11:00.578Z,36.20
2019-03-21T07:13:30.349Z,36.37
2019-03-21T07:16:00.206Z,44.30
2019-03-21T07:18:30.350Z,45.57
2019-03-21T07:21:01.276Z,47.20
2019-03-21T07:23:31.289Z,49.07
2019-03-21T07:26:01.445Z,41.43
2019-03-21T07:28:31.266Z,40.80
2019-03-21T07:31:01.038Z,39.80
2019-03-21T07:33:30.906Z,53.57
2019-03-21T07:36:00.719Z,42.13
2019-03-21T07:38:30.561Z,48.80
2019-03-21T07:41:00.410Z,47.93
2019-03-21T07:43:30.303Z,43.80
2019-03-21T07:46:00.175Z,43.70
2019-03-21T07:48:30.459Z,41.13
2019-03-21T07:51:00.248Z,34.87
2019-03-21T07:53:30.019Z,30.03
2019-03-21T07:55:59.927Z,34.27
2019-03-21T07:58:29.792Z,35.00
2019-03-21T08:01:00.131Z,43.60
2019-03-21T08:03:30.026Z,35.20
2019-03-21T08:06:00.180Z,43.87
2019-03-21T08:08:30.033Z,40.87
2019-03-21T08:10:59.924Z,37.07
2019-03-21T08:13:29.771Z,44.00
2019-03-21T08:15:59.644Z,111.57
2019-03-21T08:18:29.433Z,53.30
2019-03-21T08:21:00.172Z,64.63
2019-03-21T08:23:30.159Z,48.43
2019-03-21T08:26:00.022Z,38.10
2019-03-21T08:28:29.839Z,40.17
2019-03-21T08:31:30.751Z,41.10
2019-03-21T08:34:00.659Z,37.43
2019-03-21T08:36:30.566Z,39.10
2019-03-21T08:39:01.016Z,34.13
2019-03-21T08:41:30.767Z,35.93
2019-03-21T08:44:00.618Z,37.13
2019-03-21T08:46:30.498Z,43.80
2019-03-21T08:49:00.349Z,41.93
2019-03-21T08:51:30.124Z,75.20
2019-03-21T08:54:00.322Z,157.60
2019-03-21T08:56:30.167Z,61.23
2019-03-21T08:58:59.948Z,49.10
2019-03-21T09:01:29.849Z,54.87
2019-03-21T09:03:59.632Z,50.27
2019-03-21T09:06:29.861Z,63.53
2019-03-21T09:08:59.643Z,83.07
2019-03-21T09:11:31.323Z,44.53
2019-03-21T09:14:01.139Z,47.50
2019-03-21T09:16:32.266Z,73.63
2019-03-21T09:19:02.046Z,66.63
2019-03-21T09:21:31.905Z,50.33
2019-03-21T09:24:01.749Z,41.60
2019-03-21T09:26:31.599Z,53.80
2019-03-21T09:29:01.751Z,48.27
2019-03-21T09:31:31.884Z,53.07
2019-03-21T09:34:01.657Z,44.87
2019-03-21T09:36:31.564Z,90.00
2019-03-21T09:39:01.421Z,41.53
2019-03-21T09:41:31.501Z,51.00
2019-03-21T09:44:01.896Z,61.17
2019-03-21T09:46:31.623Z,93.30
2019-03-21T09:49:01.470Z,54.47
2019-03-21T09:51:31.371Z,38.30
2019-03-21T09:54:09.519Z,45.10
2019-03-21T09:56:32.739Z,50.30
2019-03-21T09:59:02.631Z,51.07
2019-03-21T10:01:32.407Z,42.93
2019-03-21T10:04:02.976Z,53.00
2019-03-21T10:06:32.836Z,50.10
2019-03-21T10:09:02.756Z,45.10
2019-03-21T10:11:32.614Z,40.50
2019-03-21T10:14:02.486Z,45.63
2019-03-21T10:16:32.266Z,41.77
2019-03-21T10:19:02.038Z,58.27
2019-03-21T10:21:42.769Z,44.17
2019-03-21T10:24:03.389Z,54.97
2019-03-21T10:26:33.258Z,77.60
2019-03-21T10:29:03.038Z,101.30
2019-03-21T10:31:32.803Z,65.30
2019-03-21T10:34:03.004Z,52.47
2019-03-21T10:36:32.812Z,94.40
2019-03-21T10:39:02.942Z,77.20
2019-03-21T10:41:32.725Z,50.83
2019-03-21T10:44:02.563Z,55.80
2019-03-21T10:46:32.428Z,104.43
2019-03-21T10:49:02.200Z,30.57
2019-03-21T10:51:32.096Z,33.67
2019-03-21T10:54:01.875Z,30.70
2019-03-21T10:56:31.919Z,40.77
2019-03-21T10:59:01.871Z,61.80
2019-03-21T11:01:31.733Z,77.03
2019-03-21T11:04:01.517Z,51.40
2019-03-21T11:06:31.387Z,42.77
2019-03-21T11:09:01.239Z,60.90
2019-03-21T11:11:31.025Z,31.03
2019-03-21T11:14:00.912Z,46.30
2019-03-21T11:16:31.598Z,75.17
2019-03-21T11:19:01.363Z,166.27
2019-03-21T11:21:31.277Z,71.93
2019-03-21T11:24:01.478Z,152.90
2019-03-21T11:26:31.381Z,39.70
2019-03-21T11:29:01.263Z,159.17
2019-03-21T11:31:31.171Z,50.77
2019-03-21T11:34:00.950Z,49.17
2019-03-21T11:36:38.189Z,73.80
2019-03-21T11:39:02.331Z,40.33
2019-03-21T11:41:32.111Z,49.13
2019-03-21T11:44:01.975Z,35.97
2019-03-21T11:46:31.973Z,61.67
2019-03-21T11:49:01.965Z,33.93
2019-03-21T11:51:32.352Z,40.47
2019-03-21T11:54:02.236Z,49.23
2019-03-21T11:56:32.035Z,56.13
2019-03-21T11:59:01.843Z,44.77
2019-03-21T12:01:31.676Z,32.63
2019-03-21T12:04:01.444Z,46.40
2019-03-21T12:06:31.338Z,36.13
2019-03-21T12:09:03.325Z,37.63
2019-03-21T12:11:33.095Z,32.23
2019-03-21T12:14:02.888Z,35.00
2019-03-21T12:16:32.661Z,49.03
2019-03-21T12:19:02.460Z,41.43
2019-03-21T12:21:32.315Z,39.60
2019-03-21T12:24:02.134Z,35.07
2019-03-21T12:26:32.035Z,42.67
2019-03-21T12:29:01.902Z,58.67
2019-03-21T12:31:31.852Z,41.80
2019-03-21T12:34:01.634Z,46.17
2019-03-21T12:36:31.519Z,43.97
2019-03-21T12:39:01.383Z,36.90
2019-03-21T12:41:31.237Z,37.20
2019-03-21T12:44:01.039Z,38.33
2019-03-21T12:46:31.343Z,44.07
2019-03-21T12:49:01.119Z,45.83
2019-03-21T12:51:30.972Z,51.53
2019-03-21T12:54:00.797Z,57.77
2019-03-21T12:56:30.644Z,61.33
2019-03-21T12:59:00.962Z,42.23
2019-03-21T13:01:30.840Z,80.43
2019-03-21T13:04:00.681Z,49.00
2019-03-21T13:06:30.588Z,40.50
2019-03-21T13:09:00.482Z,39.70
2019-03-21T13:11:31.114Z,49.93
2019-03-21T13:14:00.893Z,42.80
2019-03-21T13:16:30.672Z,40.90
2019-03-21T13:19:03.566Z,61.73
2019-03-21T13:21:33.339Z,54.17
2019-03-21T13:24:03.239Z,46.60
2019-03-21T13:26:33.079Z,39.57
2019-03-21T13:29:03.494Z,38.67
2019-03-21T13:31:33.396Z,48.07
2019-03-21T13:34:03.174Z,81.43
2019-03-21T13:36:32.977Z,96.90
2019-03-21T13:39:02.956Z,43.23
2019-03-21T13:41:32.888Z,40.90
2019-03-21T13:44:02.703Z,76.70
2019-03-21T13:46:32.624Z,39.67
2019-03-21T13:49:02.481Z,40.13
2019-03-21T13:51:32.330Z,38.93
2019-03-21T13:54:02.283Z,43.63
2019-03-21T13:56:38.001Z,54.20
2019-03-21T13:59:04.992Z,76.20
2019-03-21T14:01:34.849Z,84.77
2019-03-21T14:04:04.716Z,73.80
2019-03-21T14:06:34.657Z,76.50
2019-03-21T14:09:07.003Z,66.90
2019-03-21T14:11:37.047Z,72.57
2019-03-21T14:14:07.082Z,77.93
2019-03-21T14:16:36.875Z,79.80
2019-03-21T14:19:06.766Z,62.00
2019-03-21T14:21:36.652Z,52.53
2019-03-21T14:24:07.053Z,58.47
2019-03-21T14:26:37.148Z,61.50
2019-03-21T14:29:12.561Z,43.73
2019-03-21T14:31:38.526Z,38.80
2019-03-21T14:34:08.318Z,42.47
2019-03-21T14:36:38.123Z,60.23
2019-03-21T14:39:08.372Z,48.07
2019-03-21T14:41:38.248Z,63.97
2019-03-21T14:44:08.136Z,83.23
2019-03-21T14:46:38.594Z,74.90
2019-03-21T14:49:08.445Z,67.90
2019-03-21T14:51:38.340Z,61.97
2019-03-21T14:54:10.271Z,54.23
2019-03-21T14:56:40.184Z,61.23
2019-03-21T14:59:10.004Z,62.33
2019-03-21T15:01:40.859Z,51.07
2019-03-21T15:04:10.906Z,72.63
2019-03-21T15:06:40.725Z,66.97
2019-03-21T15:09:10.594Z,71.60
2019-03-21T15:11:40.491Z,72.67
2019-03-21T15:14:10.559Z,65.93
2019-03-21T15:16:40.458Z,59.23
2019-03-21T15:19:10.738Z,66.87
2019-03-21T15:21:40.789Z,48.83
2019-03-21T15:24:29.455Z,56.40
2019-03-21T15:26:59.362Z,116.80
2019-03-21T15:29:29.134Z,114.77
2019-03-21T15:31:59.750Z,100.37
2019-03-21T15:34:29.599Z,88.87
2019-03-21T15:36:59.362Z,77.07
2019-03-21T15:39:29.244Z,100.17
2019-03-21T15:41:59.172Z,160.13
2019-03-21T15:44:29.005Z,85.00
2019-03-21T15:46:58.895Z,56.17
2019-03-21T15:49:28.738Z,125.57
2019-03-21T15:51:58.715Z,117.93
2019-03-21T15:54:28.527Z,129.07
2019-03-21T15:56:58.405Z,123.90
2019-03-21T15:59:28.294Z,163.57
2019-03-21T16:01:58.214Z,141.17
2019-03-21T16:04:28.081Z,121.43
2019-03-21T16:06:57.935Z,183.00
2019-03-21T16:09:27.816Z,148.30
2019-03-21T16:11:57.622Z,172.33
2019-03-21T16:14:27.519Z,98.07
2019-03-21T16:16:57.396Z,113.47
2019-03-21T16:19:27.284Z,95.30
2019-03-21T16:21:57.163Z,121.80
2019-03-21T16:24:27.039Z,125.70
2019-03-21T16:26:58.433Z,106.17
2019-03-21T16:29:28.800Z,96.23
2019-03-21T16:32:02.218Z,100.50
2019-03-21T16:34:31.006Z,110.20
2019-03-21T16:37:00.942Z,117.50
2019-03-21T16:39:30.791Z,88.80
2019-03-21T16:42:00.608Z,117.77
2019-03-21T16:44:30.459Z,136.87
2019-03-21T16:47:00.301Z,120.43
2019-03-21T16:49:30.112Z,128.10
2019-03-21T16:51:59.967Z,123.70
2019-03-21T16:54:30.378Z,197.97
2019-03-21T16:57:00.409Z,144.83
2019-03-21T16:59:30.373Z,147.93
2019-03-21T17:02:00.259Z,177.47
2019-03-21T17:04:30.152Z,256.47
2019-03-21T17:07:00.634Z,212.07
2019-03-21T17:09:30.495Z,227.63
2019-03-21T17:12:00.372Z,234.43
2019-03-21T17:14:30.748Z,215.87
2019-03-21T17:17:00.941Z,204.93
2019-03-21T17:19:31.755Z,323.60
2019-03-21T17:22:01.886Z,416.03
2019-03-21T17:24:31.705Z,377.33
2019-03-21T17:27:01.656Z,268.73
2019-03-21T17:29:31.544Z,364.07
2019-03-21T17:32:01.402Z,392.60
2019-03-21T17:34:31.224Z,344.77
2019-03-21T17:37:01.663Z,301.37
2019-03-21T17:39:50.549Z,325.70
2019-03-21T17:42:21.114Z,427.53
2019-03-21T17:44:51.938Z,305.63
2019-03-21T17:47:25.145Z,231.03
2019-03-21T17:49:55.444Z,160.33
2019-03-21T17:52:25.388Z,159.57
2019-03-21T17:54:55.246Z,170.30
2019-03-21T17:57:33.877Z,162.03
2019-03-21T17:59:56.713Z,164.80
2019-03-21T18:02:26.644Z,354.97
2019-03-21T18:04:56.676Z,287.73
2019-03-21T18:07:26.551Z,264.73
2019-03-21T18:09:56.470Z,184.60
2019-03-21T18:12:26.350Z,236.70
2019-03-21T18:14:56.199Z,340.00
2019-03-21T18:17:26.213Z,447.50
2019-03-21T18:19:55.990Z,326.47
2019-03-21T18:22:25.893Z,222.40
2019-03-21T18:24:56.040Z,154.77
2019-03-21T18:27:25.880Z,175.13
2019-03-21T18:29:55.854Z,180.07
2019-03-21T18:32:25.826Z,156.63
2019-03-21T18:34:55.723Z,149.07
2019-03-21T18:37:25.651Z,177.90
2019-03-21T18:39:55.972Z,238.23
2019-03-21T18:42:26.385Z,212.80
2019-03-21T18:44:56.337Z,151.20
2019-03-21T18:47:26.287Z,139.23
2019-03-21T18:49:58.034Z,104.80
2019-03-21T18:52:27.840Z,134.27
2019-03-21T18:55:06.347Z,97.67
2019-03-21T18:57:29.304Z,114.87
2019-03-21T18:59:59.168Z,108.67
2019-03-21T19:02:29.042Z,122.70
2019-03-21T19:04:58.930Z,101.23
2019-03-21T19:07:28.745Z,149.33
2019-03-21T19:09:58.655Z,102.07
2019-03-21T19:12:28.497Z,95.60
2019-03-21T19:15:01.766Z,102.20
2019-03-21T19:17:31.790Z,89.57
2019-03-21T19:20:01.640Z,93.77
2019-03-21T19:22:31.507Z,91.17
2019-03-21T19:25:01.444Z,77.13
2019-03-21T19:27:31.327Z,74.43
2019-03-21T19:30:01.216Z,84.30
2019-03-21T19:32:31.409Z,83.90
2019-03-21T19:35:01.192Z,88.53
2019-03-21T19:37:31.025Z,82.43
2019-03-21T19:40:00.932Z,76.30
2019-03-21T19:42:30.791Z,80.97
2019-03-21T19:45:00.599Z,82.83
2019-03-21T19:47:30.587Z,81.17
2019-03-21T19:50:00.541Z,69.90
2019-03-21T19:52:30.378Z,70.93
2019-03-21T19:55:00.361Z,81.73
2019-03-21T19:57:30.263Z,83.33
2019-03-21T20:00:00.358Z,70.47
2019-03-21T20:02:30.350Z,87.57
2019-03-21T20:05:00.287Z,74.00
2019-03-21T20:07:30.065Z,79.93
2019-03-21T20:09:59.999Z,71.80
2019-03-21T20:12:29.828Z,93.77
2019-03-21T20:14:59.783Z,84.60
2019-03-21T20:17:29.665Z,76.40
2019-03-21T20:19:59.863Z,63.70
2019-03-21T20:22:30.148Z,63.27
2019-03-21T20:24:59.974Z,60.87
2019-03-21T20:27:29.980Z,62.13
2019-03-21T20:29:59.993Z,72.37
2019-03-21T20:32:29.879Z,75.70
2019-03-21T20:34:59.777Z,66.93
2019-03-21T20:37:30.413Z,102.20
2019-03-21T20:40:00.344Z,87.07
2019-03-21T20:42:30.457Z,114.67
2019-03-21T20:45:00.361Z,109.87
2019-03-21T20:47:30.669Z,139.43
2019-03-21T20:50:01.437Z,117.53
2019-03-21T20:52:31.412Z,91.23
2019-03-21T20:55:01.238Z,89.90
2019-03-21T20:57:31.078Z,137.03
2019-03-21T21:00:00.954Z,125.47
2019-03-21T21:02:31.218Z,149.40
2019-03-21T21:05:01.076Z,130.97
2019-03-21T21:07:30.969Z,95.93
2019-03-21T21:10:01.488Z,106.33
2019-03-21T21:12:31.221Z,86.07
2019-03-21T21:15:01.112Z,93.23
2019-03-21T21:17:31.039Z,103.60
2019-03-21T21:20:00.933Z,57.97
2019-03-21T21:22:31.186Z,105.17
2019-03-21T21:25:01.059Z,96.07
2019-03-21T21:27:30.993Z,94.97
2019-03-21T21:30:00.751Z,92.77
2019-03-21T21:32:30.943Z,99.50
2019-03-21T21:35:00.772Z,83.53
2019-03-21T21:37:30.710Z,70.43
2019-03-21T21:40:00.624Z,88.77
2019-03-21T21:42:30.502Z,71.77
2019-03-21T21:45:00.326Z,92.73
2019-03-21T21:47:30.166Z,89.07
2019-03-21T21:50:00.346Z,92.57
2019-03-21T21:52:41.378Z,90.63
2019-03-21T21:55:01.658Z,85.13
2019-03-21T21:57:31.506Z,79.73
2019-03-21T22:00:01.584Z,107.00
2019-03-21T22:02:31.438Z,84.80
2019-03-21T22:05:01.302Z,104.27
2019-03-21T22:07:31.236Z,146.87
2019-03-21T22:10:01.078Z,105.17
2019-03-21T22:12:30.958Z,82.77
2019-03-21T22:15:00.815Z,91.80
2019-03-21T22:17:30.712Z,97.07
2019-03-21T22:20:00.579Z,145.33
2019-03-21T22:22:30.419Z,106.50
2019-03-21T22:25:00.887Z,102.77
2019-03-21T22:27:30.930Z,81.50
2019-03-21T22:30:00.740Z,103.50
2019-03-21T22:32:30.605Z,78.17
2019-03-21T22:35:00.474Z,91.67
2019-03-21T22:37:30.410Z,93.30
2019-03-21T22:40:00.451Z,93.63
2019-03-21T22:42:30.637Z,89.37
2019-03-21T22:45:00.425Z,117.17
2019-03-21T22:47:30.126Z,92.87
2019-03-21T22:49:59.947Z,69.60
2019-03-21T22:52:29.740Z,87.03
2019-03-21T22:54:59.599Z,72.40
2019-03-21T22:57:29.410Z,76.70
2019-03-21T22:59:59.184Z,84.77
2019-03-21T23:02:29.041Z,76.37
2019-03-21T23:04:58.846Z,73.83
2019-03-21T23:07:28.607Z,72.27
2019-03-21T23:09:58.463Z,80.43
2019-03-21T23:12:28.248Z,82.60
2019-03-21T23:14:58.022Z,82.63
2019-03-21T23:17:27.799Z,81.77
2019-03-21T23:19:57.696Z,86.57
2019-03-21T23:22:27.559Z,87.73
2019-03-21T23:24:57.419Z,73.27
2019-03-21T23:27:27.456Z,80.50
2019-03-21T23:29:57.222Z,83.17
2019-03-21T23:32:27.002Z,87.50
2019-03-21T23:34:56.795Z,74.83
2019-03-21T23:37:26.590Z,99.23
2019-03-21T23:39:56.366Z,71.80
2019-03-21T23:42:26.216Z,67.73
2019-03-21T23:44:56.074Z,71.80
2019-03-21T23:47:25.849Z,89.90
2019-03-21T23:49:55.699Z,82.23
2019-03-21T23:52:25.876Z,74.40
2019-03-21T23:54:55.773Z,86.93
2019-03-21T23:57:25.562Z,101.67
2019-03-21T23:59:55.418Z,104.80
